La Palma > ESTACION METEOROLÓGICA El Reventón - Puntagorda

DATOS ACTUALES Online

Ultima actulizacion 33 minutos

12.6 ºC

Temperatura

45

Humedad (%)

Presión (mb)

0

Precipitación (mm)

8.8 N

Viento (Km/h)

DATOS DIARIOS

Temperatura últimas 24 horas (ºC)

Humedad últimas 24 horas (%)

Presión atmosférica últimas 24 horas (mb)

Precipitaciones últimas 23 horas (mm)

Viento últimas 24 horas (Km/h)

Hora Temperatura (°C) ºC Precipitación (mm) mm Presión (mb) mb Humedad (%) % Viento (Km/h) km/h
29 - 00:00 15.7 0 0 10 4.9 NO
29 - 01:00 16.5 0 0 8 8.1 S
29 - 02:00 16.5 0 0 9 4 NO
29 - 03:00 13.8 0 0 15 5.1 S
29 - 04:00 14.8 0 0 18 2.9 NO
29 - 05:00 13.1 0 0 25 6 SO
29 - 06:00 7.8 0 0 88 8.7 S
29 - 07:00 13.2 0 0 27 5.2 SO
29 - 08:00 14.5 0 0 23 8.1 SO
29 - 09:00 10.2 0 0 86 6.6 S
29 - 10:00 10.4 0 0 93 7.3 S
29 - 11:00 10.7 0 0 93 7.9 S
29 - 12:00 13.1 0 0 82 14 SW
29 - 13:00 12.6 0 0 81 16.7 SW
29 - 14:00 12.9 0 0 83 19.7 W
29 - 15:00 13.6 0 0 79 20.3 W
29 - 16:00 12.6 0 0 85 15.7 W
29 - 17:00 9.9 0 0 100 7.9 NW
29 - 18:00 9.8 0 0 97 11.7 W
29 - 19:00 10.7 0 0 92 8.2 N
29 - 20:00 9.8 0 0 87 11.6 N
29 - 21:00 11.1 0 0 44 10.6 N
29 - 22:00 12.4 0 0 44 11.1 N
29 - 23:00 12.6 0 0 44 8.9 NO
30 - 00:00 12.6 0 0 45 8.8 N
Apalmet utiliza cookies propias y de terceros para mejorar la usabilidad y la experiencia web. Política de cookies.